createdAt,value
2022-12-28T00:01:07.426Z,71.19
2022-12-28T00:03:52.144Z,70.72
2022-12-28T00:06:36.004Z,71.19
2022-12-28T00:09:19.791Z,72.22
2022-12-28T00:12:03.548Z,72.86
2022-12-28T00:14:48.795Z,72.05
2022-12-28T00:17:32.533Z,72.09
2022-12-28T00:20:16.569Z,72.80
2022-12-28T00:23:00.385Z,73.47
2022-12-28T00:25:44.168Z,73.83
2022-12-28T00:28:27.934Z,74.53
2022-12-28T00:31:13.294Z,74.69
2022-12-28T00:33:57.144Z,74.60
2022-12-28T00:37:09.377Z,76.08
2022-12-28T00:39:46.164Z,74.72
2022-12-28T00:42:31.963Z,76.57
2022-12-28T00:45:15.870Z,76.89
2022-12-28T00:48:02.614Z,76.98
2022-12-28T00:50:46.747Z,77.47
2022-12-28T00:53:30.487Z,76.96
2022-12-28T00:56:15.679Z,76.16
2022-12-28T00:59:01.018Z,75.63
2022-12-28T01:01:45.117Z,76.87
2022-12-28T01:04:30.387Z,76.32
2022-12-28T01:07:14.166Z,75.33
2022-12-28T01:09:58.149Z,75.58
2022-12-28T01:12:42.089Z,76.19
2022-12-28T01:15:25.869Z,76.43
2022-12-28T01:18:09.663Z,76.62
2022-12-28T01:20:57.985Z,76.29
2022-12-28T01:23:42.001Z,76.85
2022-12-28T01:26:27.547Z,77.46
2022-12-28T01:29:12.667Z,77.29
2022-12-28T01:31:56.491Z,76.65
2022-12-28T01:34:40.443Z,76.63
2022-12-28T01:37:25.664Z,75.65
2022-12-28T01:40:14.633Z,74.99
2022-12-28T01:42:58.669Z,74.87
2022-12-28T01:45:46.310Z,74.29
2022-12-28T01:48:30.109Z,73.97
2022-12-28T01:51:14.018Z,74.09
2022-12-28T01:54:02.109Z,73.32
2022-12-28T01:56:46.294Z,73.48
2022-12-28T01:59:33.081Z,73.55
2022-12-28T02:02:17.237Z,72.54
2022-12-28T02:05:02.096Z,73.30
2022-12-28T02:07:53.647Z,73.45
2022-12-28T02:10:41.115Z,72.54
2022-12-28T02:13:29.601Z,72.10
2022-12-28T02:16:34.486Z,71.69
2022-12-28T02:19:31.197Z,71.91
2022-12-28T02:22:46.743Z,71.98
2022-12-28T02:26:23.985Z,71.42
2022-12-28T02:29:39.376Z,70.78
2022-12-28T02:32:46.559Z,70.88
2022-12-28T02:35:38.400Z,71.19
2022-12-28T02:38:29.540Z,72.46
2022-12-28T02:41:17.132Z,73.39
2022-12-28T02:44:02.452Z,73.49
2022-12-28T02:47:07.220Z,73.35
2022-12-28T02:50:09.097Z,73.89
2022-12-28T02:53:20.620Z,71.73
2022-12-28T02:56:16.678Z,73.13
2022-12-28T02:59:24.124Z,72.91
2022-12-28T03:02:35.831Z,73.26
2022-12-28T03:05:45.107Z,73.65
2022-12-28T03:08:39.858Z,73.10
2022-12-28T03:11:34.198Z,72.92
2022-12-28T03:14:23.954Z,73.36
2022-12-28T03:17:28.552Z,72.74
2022-12-28T03:20:37.805Z,72.66
2022-12-28T03:23:41.832Z,72.71
2022-12-28T03:26:43.213Z,72.04
2022-12-28T03:29:47.315Z,72.17
2022-12-28T03:32:31.708Z,72.62
2022-12-28T03:35:17.721Z,71.99
2022-12-28T03:38:04.106Z,71.50
2022-12-28T03:40:51.384Z,70.99
2022-12-28T03:43:45.348Z,70.16
2022-12-28T03:46:40.946Z,68.99
2022-12-28T03:49:26.302Z,67.75
2022-12-28T03:52:14.105Z,66.76
2022-12-28T03:54:58.032Z,66.33
2022-12-28T03:57:42.297Z,66.78
2022-12-28T04:00:32.442Z,65.86
2022-12-28T04:03:16.257Z,65.89
2022-12-28T04:06:00.480Z,64.59
2022-12-28T04:08:46.643Z,65.44
2022-12-28T04:11:30.939Z,65.36
2022-12-28T04:14:15.792Z,64.90
2022-12-28T04:17:01.223Z,65.02
2022-12-28T04:19:45.115Z,65.17
2022-12-28T04:22:28.889Z,64.29
2022-12-28T04:25:16.640Z,64.65
2022-12-28T04:28:00.642Z,64.09
2022-12-28T04:31:13.381Z,64.32
2022-12-28T04:34:01.851Z,63.44
2022-12-28T04:36:48.919Z,62.33
2022-12-28T04:39:55.853Z,62.94
2022-12-28T04:42:41.510Z,61.83
2022-12-28T04:45:25.394Z,63.15
2022-12-28T04:48:09.221Z,62.84
2022-12-28T04:50:53.264Z,62.36
2022-12-28T04:53:41.276Z,63.20
2022-12-28T04:56:26.891Z,61.21
2022-12-28T04:59:12.151Z,62.23
2022-12-28T05:01:57.665Z,60.97
2022-12-28T05:04:41.484Z,61.52
2022-12-28T05:07:25.518Z,62.78
2022-12-28T05:10:09.941Z,62.58
2022-12-28T05:12:53.643Z,61.77
2022-12-28T05:15:39.205Z,61.72
2022-12-28T05:18:22.892Z,62.34
2022-12-28T05:21:08.681Z,61.79
2022-12-28T05:23:53.591Z,63.30
2022-12-28T05:26:37.431Z,61.45
2022-12-28T05:29:21.290Z,60.88
2022-12-28T05:32:07.345Z,62.27
2022-12-28T05:34:51.126Z,62.63
2022-12-28T05:37:34.940Z,62.13
2022-12-28T05:40:18.652Z,60.67
2022-12-28T05:43:02.418Z,60.45
2022-12-28T05:45:46.227Z,60.12
2022-12-28T05:48:33.907Z,60.00
2022-12-28T05:51:19.884Z,60.70
2022-12-28T05:54:05.085Z,59.80
2022-12-28T05:56:51.577Z,59.90
2022-12-28T05:59:35.480Z,59.45
2022-12-28T06:02:24.583Z,61.03
2022-12-28T06:05:10.759Z,59.59
2022-12-28T06:07:54.548Z,59.34
2022-12-28T06:10:38.307Z,58.81
2022-12-28T06:13:22.031Z,57.77
2022-12-28T06:16:10.625Z,58.48
2022-12-28T06:18:54.568Z,58.68
2022-12-28T06:21:41.237Z,55.54
2022-12-28T06:24:24.983Z,56.03
2022-12-28T06:27:08.781Z,58.03
2022-12-28T06:29:52.678Z,58.51
2022-12-28T06:32:36.449Z,59.61
2022-12-28T06:35:20.284Z,60.39
2022-12-28T06:38:05.556Z,60.10
2022-12-28T06:41:12.391Z,60.67
2022-12-28T06:43:53.391Z,60.47
2022-12-28T06:46:37.836Z,60.91
2022-12-28T06:49:21.583Z,61.55
2022-12-28T06:52:05.667Z,60.68
2022-12-28T06:54:51.255Z,60.70
2022-12-28T06:57:35.099Z,59.59
2022-12-28T07:00:19.105Z,60.31
2022-12-28T07:03:02.900Z,59.94
2022-12-28T07:05:46.710Z,59.67
2022-12-28T07:08:30.980Z,59.56
2022-12-28T07:11:18.235Z,59.45
2022-12-28T07:14:01.969Z,59.42
2022-12-28T07:16:45.932Z,58.67
2022-12-28T07:19:29.833Z,58.63
2022-12-28T07:22:13.592Z,58.06
2022-12-28T07:24:57.428Z,58.32
2022-12-28T07:27:42.841Z,58.13
2022-12-28T07:30:26.710Z,57.95
2022-12-28T07:33:10.600Z,57.36
2022-12-28T07:35:54.299Z,56.72
2022-12-28T07:38:38.481Z,57.49
2022-12-28T07:41:24.498Z,56.85
2022-12-28T07:44:09.591Z,56.14
2022-12-28T07:46:53.279Z,56.13
2022-12-28T07:49:37.091Z,55.20
2022-12-28T07:52:20.884Z,54.75
2022-12-28T07:55:05.178Z,53.87
2022-12-28T07:57:48.984Z,52.90
2022-12-28T08:00:34.060Z,52.01
2022-12-28T08:03:17.931Z,52.59
2022-12-28T08:06:10.876Z,51.35
2022-12-28T08:08:57.188Z,51.31
2022-12-28T08:11:42.463Z,49.53
2022-12-28T08:14:26.206Z,48.84
2022-12-28T08:17:14.885Z,48.72
2022-12-28T08:20:02.919Z,48.40
2022-12-28T08:22:47.536Z,49.06
2022-12-28T08:25:31.322Z,49.30
2022-12-28T08:28:15.149Z,48.42
2022-12-28T08:30:59.052Z,49.13
2022-12-28T08:33:44.557Z,52.41
2022-12-28T08:36:29.013Z,50.96
2022-12-28T08:39:12.937Z,49.03
2022-12-28T08:41:57.328Z,49.61
2022-12-28T08:44:41.058Z,49.00
2022-12-28T08:47:24.885Z,48.30
2022-12-28T08:50:12.323Z,48.15
2022-12-28T08:52:56.411Z,48.85
2022-12-28T08:55:40.335Z,48.84
2022-12-28T08:58:24.128Z,48.30
2022-12-28T09:01:09.651Z,49.49
2022-12-28T09:03:55.999Z,46.27
2022-12-28T09:06:41.430Z,46.67
2022-12-28T09:09:25.193Z,46.97
2022-12-28T09:12:09.039Z,45.38
2022-12-28T09:14:52.801Z,45.19
2022-12-28T09:17:36.708Z,44.30
2022-12-28T09:20:20.505Z,45.60
2022-12-28T09:23:05.769Z,45.49
2022-12-28T09:25:49.735Z,44.14
2022-12-28T09:28:33.545Z,42.22
2022-12-28T09:31:18.372Z,42.35
2022-12-28T09:37:07.176Z,41.39
2022-12-28T09:39:54.627Z,39.47
2022-12-28T09:42:43.986Z,39.38
2022-12-28T09:45:28.335Z,40.23
2022-12-28T09:48:17.176Z,40.63
2022-12-28T09:51:01.304Z,38.34
2022-12-28T09:53:45.405Z,37.73
2022-12-28T09:56:36.260Z,36.56
2022-12-28T09:59:23.180Z,37.59
2022-12-28T10:02:20.119Z,37.47
2022-12-28T10:05:04.066Z,36.44
2022-12-28T10:07:47.911Z,36.50
2022-12-28T10:10:31.979Z,36.09
2022-12-28T10:13:53.057Z,36.26
2022-12-28T10:16:26.869Z,36.36
2022-12-28T10:19:12.470Z,36.82
2022-12-28T10:22:01.207Z,37.65
2022-12-28T10:24:45.995Z,37.54
2022-12-28T10:27:32.526Z,38.41
2022-12-28T10:30:21.151Z,39.61
2022-12-28T10:33:06.322Z,39.40
2022-12-28T10:35:53.930Z,41.54
2022-12-28T10:38:38.162Z,38.56
2022-12-28T10:41:22.685Z,39.04
2022-12-28T10:44:38.775Z,38.93
2022-12-28T10:47:31.488Z,37.90
2022-12-28T10:50:43.576Z,36.96
2022-12-28T10:53:30.395Z,37.84
2022-12-28T10:56:24.424Z,38.03
2022-12-28T10:59:21.935Z,37.57
2022-12-28T11:02:25.112Z,37.67
2022-12-28T11:05:21.095Z,37.64
2022-12-28T11:08:06.830Z,38.89
2022-12-28T11:10:58.152Z,37.91
2022-12-28T11:13:42.197Z,38.71
2022-12-28T11:16:26.116Z,39.02
2022-12-28T11:19:10.255Z,39.56
2022-12-28T11:21:55.491Z,39.46
2022-12-28T11:24:41.481Z,37.67
2022-12-28T11:27:25.825Z,38.20
2022-12-28T11:30:17.758Z,37.95
2022-12-28T11:33:05.009Z,38.70
2022-12-28T11:35:50.976Z,39.06
2022-12-28T11:38:40.857Z,39.25
2022-12-28T11:41:56.220Z,39.10
2022-12-28T11:44:53.407Z,38.23
2022-12-28T11:47:37.436Z,38.16
2022-12-28T11:50:51.656Z,37.54
2022-12-28T11:53:57.570Z,38.16
2022-12-28T11:56:59.932Z,37.55
2022-12-28T11:59:43.924Z,37.15
2022-12-28T12:02:41.803Z,37.35
2022-12-28T12:05:54.313Z,37.99
2022-12-28T12:08:43.410Z,37.91
2022-12-28T12:11:33.529Z,37.56
2022-12-28T12:14:19.705Z,37.06
2022-12-28T12:17:07.651Z,37.30
2022-12-28T12:19:56.889Z,39.89
2022-12-28T12:22:49.234Z,37.00
2022-12-28T12:25:39.020Z,37.43
2022-12-28T12:28:36.815Z,37.33
2022-12-28T12:31:29.483Z,37.93
2022-12-28T12:34:19.933Z,37.12
2022-12-28T12:37:30.275Z,37.19
2022-12-28T12:40:53.685Z,37.17
2022-12-28T12:43:51.343Z,37.08
2022-12-28T12:47:06.263Z,36.86
2022-12-28T12:50:16.282Z,37.87
2022-12-28T12:53:07.721Z,38.13
2022-12-28T12:56:00.658Z,37.81
2022-12-28T12:58:58.346Z,36.92
2022-12-28T13:01:51.237Z,37.61
2022-12-28T13:04:36.720Z,40.22
2022-12-28T13:07:23.470Z,37.76
2022-12-28T13:10:16.361Z,38.33
2022-12-28T13:13:01.828Z,39.23
2022-12-28T13:15:47.098Z,37.18
2022-12-28T13:18:46.812Z,40.88
2022-12-28T13:21:32.566Z,39.06
2022-12-28T13:24:22.240Z,39.66
2022-12-28T13:27:20.309Z,38.22
2022-12-28T13:30:04.893Z,39.58
2022-12-28T13:32:53.741Z,38.44
2022-12-28T13:35:37.591Z,39.08
2022-12-28T13:38:21.401Z,39.01
2022-12-28T13:41:18.134Z,38.81
2022-12-28T13:44:22.730Z,39.21
2022-12-28T13:47:12.370Z,38.38
2022-12-28T13:50:01.794Z,40.30
2022-12-28T13:52:52.953Z,40.25
2022-12-28T13:55:41.376Z,39.98
2022-12-28T13:58:33.057Z,39.50
2022-12-28T14:01:21.216Z,40.43
2022-12-28T14:04:50.719Z,40.90
2022-12-28T14:07:16.138Z,41.45
2022-12-28T14:10:00.455Z,42.11
2022-12-28T14:12:46.119Z,41.70
2022-12-28T14:15:31.033Z,42.36
2022-12-28T14:18:18.580Z,42.40
2022-12-28T14:21:04.209Z,42.67
2022-12-28T14:23:49.459Z,42.54
2022-12-28T14:26:34.189Z,43.25
2022-12-28T14:29:23.965Z,42.75
2022-12-28T14:32:15.117Z,43.21
2022-12-28T14:35:02.443Z,44.07
2022-12-28T14:37:51.242Z,44.69
2022-12-28T14:40:36.756Z,44.44
2022-12-28T14:43:25.866Z,44.58
2022-12-28T14:46:17.977Z,45.07
2022-12-28T14:49:22.218Z,45.28
2022-12-28T14:52:41.165Z,45.04
2022-12-28T14:55:30.594Z,46.61
2022-12-28T14:58:22.506Z,46.68
2022-12-28T15:01:09.651Z,45.82
2022-12-28T15:03:55.074Z,46.39
2022-12-28T15:06:38.908Z,46.59
2022-12-28T15:09:23.148Z,47.24
2022-12-28T15:12:12.561Z,47.20
2022-12-28T15:14:57.822Z,47.55
2022-12-28T15:17:41.576Z,48.02
2022-12-28T15:20:25.873Z,48.02
2022-12-28T15:23:09.638Z,48.40
2022-12-28T15:25:53.440Z,50.37
2022-12-28T15:28:37.280Z,50.20
2022-12-28T15:31:23.266Z,50.64
2022-12-28T15:34:07.198Z,49.86
2022-12-28T15:36:52.306Z,50.62
2022-12-28T15:39:36.321Z,50.53
2022-12-28T15:42:20.118Z,51.01
2022-12-28T15:45:03.982Z,51.11
2022-12-28T15:47:49.314Z,50.95
2022-12-28T15:50:33.406Z,51.10
2022-12-28T15:53:18.270Z,51.49
2022-12-28T15:56:02.697Z,50.93
2022-12-28T15:58:46.472Z,51.80
2022-12-28T16:01:32.492Z,52.39
2022-12-28T16:04:17.820Z,52.44
2022-12-28T16:07:01.657Z,52.85
2022-12-28T16:09:46.908Z,53.17
2022-12-28T16:12:30.705Z,52.90
2022-12-28T16:15:14.549Z,52.55
2022-12-28T16:17:58.460Z,53.81
2022-12-28T16:20:43.605Z,53.46
2022-12-28T16:23:27.460Z,53.10
2022-12-28T16:26:13.108Z,52.61
2022-12-28T16:28:57.916Z,52.87
2022-12-28T16:31:42.532Z,52.55
2022-12-28T16:34:28.023Z,53.30
2022-12-28T16:37:13.414Z,53.26
2022-12-28T16:39:57.184Z,53.35
2022-12-28T16:42:46.016Z,53.92
2022-12-28T16:45:30.318Z,53.97
2022-12-28T16:48:16.048Z,54.41
2022-12-28T16:51:01.003Z,54.21
2022-12-28T16:53:46.641Z,54.17
2022-12-28T16:56:30.617Z,54.50
2022-12-28T16:59:17.194Z,54.56
2022-12-28T17:02:01.930Z,54.82
2022-12-28T17:04:46.209Z,54.87
2022-12-28T17:07:30.229Z,55.71
2022-12-28T17:10:16.038Z,55.54
2022-12-28T17:13:00.158Z,55.90
2022-12-28T17:15:45.932Z,55.35
2022-12-28T17:18:29.867Z,56.32
2022-12-28T17:21:13.686Z,56.74
2022-12-28T17:23:58.209Z,56.23
2022-12-28T17:26:43.373Z,57.46
2022-12-28T17:29:27.264Z,57.77
2022-12-28T17:32:11.229Z,58.11
2022-12-28T17:34:55.030Z,57.99
2022-12-28T17:37:38.886Z,59.23
2022-12-28T17:40:22.773Z,59.32
2022-12-28T17:43:08.063Z,59.72
2022-12-28T17:45:52.022Z,60.55
2022-12-28T17:48:35.851Z,61.23
2022-12-28T17:51:19.646Z,60.46
2022-12-28T17:54:03.714Z,60.43
2022-12-28T17:56:47.480Z,60.69
2022-12-28T17:59:32.705Z,60.43
2022-12-28T18:02:16.800Z,60.33
2022-12-28T18:05:00.608Z,60.74
2022-12-28T18:07:44.447Z,60.75
2022-12-28T18:10:28.386Z,62.20
2022-12-28T18:13:13.089Z,61.64
2022-12-28T18:15:58.557Z,62.53
2022-12-28T18:18:42.385Z,62.35
2022-12-28T18:21:27.088Z,62.93
2022-12-28T18:24:13.890Z,62.71
2022-12-28T18:26:57.748Z,63.39
2022-12-28T18:29:42.886Z,63.70
2022-12-28T18:32:28.143Z,63.72
2022-12-28T18:35:12.141Z,64.10
2022-12-28T18:37:56.009Z,64.93
2022-12-28T18:40:39.751Z,66.32
2022-12-28T18:43:24.088Z,66.04
2022-12-28T18:46:09.093Z,65.84
2022-12-28T18:48:54.467Z,66.70
2022-12-28T18:51:38.217Z,67.01
2022-12-28T18:54:22.050Z,66.84
2022-12-28T18:57:05.975Z,68.30
2022-12-28T18:59:50.113Z,67.77
2022-12-28T19:02:34.203Z,67.76
2022-12-28T19:05:20.817Z,68.07
2022-12-28T19:08:04.901Z,68.24
2022-12-28T19:10:50.272Z,67.63
2022-12-28T19:13:35.530Z,67.11
2022-12-28T19:16:24.602Z,67.87
2022-12-28T19:19:17.036Z,67.86
2022-12-28T19:22:02.372Z,69.99
2022-12-28T19:24:46.127Z,69.56
2022-12-28T19:27:29.882Z,69.46
2022-12-28T19:30:14.573Z,69.45
2022-12-28T19:32:58.538Z,70.02
2022-12-28T19:35:42.633Z,70.14
2022-12-28T19:38:27.847Z,69.74
2022-12-28T19:41:14.783Z,71.65
2022-12-28T19:43:58.729Z,71.75
2022-12-28T19:46:42.514Z,71.33
2022-12-28T19:49:26.490Z,71.72
2022-12-28T19:52:10.464Z,72.13
2022-12-28T19:54:55.656Z,71.36
2022-12-28T19:57:39.626Z,71.46
2022-12-28T20:00:23.642Z,71.97
2022-12-28T20:03:08.272Z,72.05
2022-12-28T20:05:52.205Z,71.47
2022-12-28T20:08:36.663Z,71.25
2022-12-28T20:11:22.444Z,71.32
2022-12-28T20:14:06.285Z,72.05
2022-12-28T20:16:52.196Z,72.78
2022-12-28T20:19:35.966Z,72.45
2022-12-28T20:22:19.767Z,72.17
2022-12-28T20:25:03.620Z,71.93
2022-12-28T20:27:48.835Z,71.93
2022-12-28T20:30:32.918Z,72.07
2022-12-28T20:33:17.674Z,73.20
2022-12-28T20:36:04.587Z,72.88
2022-12-28T20:38:48.963Z,71.99
2022-12-28T20:41:51.888Z,72.31
2022-12-28T20:44:37.978Z,73.03
2022-12-28T20:47:21.760Z,72.71
2022-12-28T20:50:06.242Z,72.54
2022-12-28T20:52:53.813Z,73.13
2022-12-28T20:55:37.635Z,72.54
2022-12-28T20:58:21.841Z,72.19
2022-12-28T21:01:08.231Z,73.38
2022-12-28T21:03:52.121Z,73.47
2022-12-28T21:06:36.326Z,74.28
2022-12-28T21:09:20.164Z,74.52
2022-12-28T21:12:03.976Z,73.76
2022-12-28T21:14:47.777Z,73.50
2022-12-28T21:17:35.278Z,73.93
2022-12-28T21:20:19.112Z,73.32
2022-12-28T21:23:02.922Z,74.36
2022-12-28T21:25:46.761Z,74.35
2022-12-28T21:28:31.105Z,74.58
2022-12-28T21:31:15.653Z,74.21
2022-12-28T21:34:00.854Z,74.07
2022-12-28T21:36:44.689Z,74.58
2022-12-28T21:39:28.481Z,74.30
2022-12-28T21:42:12.322Z,73.40
2022-12-28T21:44:56.178Z,74.38
2022-12-28T21:47:40.077Z,74.87
2022-12-28T21:50:25.272Z,74.78
2022-12-28T21:53:09.012Z,74.30
2022-12-28T21:55:52.776Z,74.69
2022-12-28T21:58:36.504Z,74.33
2022-12-28T22:01:38.051Z,74.58
2022-12-28T22:04:41.600Z,74.77
2022-12-28T22:07:26.817Z,74.77
2022-12-28T22:10:28.335Z,75.21
2022-12-28T22:13:14.725Z,75.36
2022-12-28T22:15:58.570Z,74.40
2022-12-28T22:19:01.323Z,74.65
2022-12-28T22:21:46.236Z,75.07
2022-12-28T22:24:31.550Z,75.12
2022-12-28T22:27:15.322Z,74.55
2022-12-28T22:29:59.454Z,74.16
2022-12-28T22:32:43.280Z,74.42
2022-12-28T22:35:27.436Z,74.62
2022-12-28T22:38:11.280Z,74.38
2022-12-28T22:41:00.582Z,74.33
2022-12-28T22:43:44.393Z,74.62
2022-12-28T22:46:28.213Z,74.99
2022-12-28T22:49:12.089Z,75.46
2022-12-28T22:51:55.888Z,75.61
2022-12-28T22:54:39.710Z,74.85
2022-12-28T22:57:24.899Z,75.21
2022-12-28T23:00:13.210Z,75.42
2022-12-28T23:02:57.007Z,75.76
2022-12-28T23:05:41.508Z,76.79
2022-12-28T23:08:25.306Z,76.75
2022-12-28T23:11:36.533Z,75.83
2022-12-28T23:14:43.127Z,76.01
2022-12-28T23:17:27.635Z,75.60
2022-12-28T23:20:30.064Z,76.29
2022-12-28T23:23:31.438Z,76.89
2022-12-28T23:26:32.871Z,77.00
2022-12-28T23:29:16.605Z,76.18
2022-12-28T23:32:01.936Z,76.82
2022-12-28T23:34:45.710Z,77.57
2022-12-28T23:37:29.571Z,77.78
2022-12-28T23:40:15.796Z,76.91
2022-12-28T23:42:59.538Z,76.78
2022-12-28T23:45:43.323Z,77.04
2022-12-28T23:48:28.471Z,77.29
2022-12-28T23:51:12.234Z,77.30
2022-12-28T23:53:56.289Z,77.95
2022-12-28T23:56:40.149Z,78.35
2022-12-28T23:59:24.152Z,77.62
